Time;durP1;ratioP1;P1;durP2;ratioP2;P2;SDS_P1;SDS_P2;PMS_P1;PMS_P2;Temp;Humidity;BMP_temperature;BMP_pressure;BME280_temperature;BME280_humidity;BME280_pressure;Samples;Min_cycle;Max_cycle;Signal;HPM_P1;HPM_P2
2022/11/27 00:01:27;;;;;;;9.52;3.53;;;6.80;99.90;;;;;;4999935;28;20058;-70
2022/11/27 00:03:54;;;;;;;13.20;4.97;;;6.80;99.90;;;;;;4994843;28;20038;-70
2022/11/27 00:06:22;;;;;;;9.82;3.10;;;6.80;99.90;;;;;;5002102;28;20046;-71
2022/11/27 00:08:48;;;;;;;10.90;3.25;;;6.70;99.90;;;;;;5001917;28;20466;-70
2022/11/27 00:11:17;;;;;;;11.35;3.22;;;6.80;99.90;;;;;;5002335;28;20038;-70
2022/11/27 00:13:44;;;;;;;10.80;2.97;;;6.80;99.90;;;;;;5004645;28;20156;-70
2022/11/27 00:16:10;;;;;;;11.80;4.13;;;6.80;99.90;;;;;;5000011;28;20521;-71
2022/11/27 00:18:36;;;;;;;16.15;3.30;;;6.80;99.90;;;;;;5004075;28;20507;-71
2022/11/27 00:21:10;;;;;;;12.90;3.30;;;6.80;99.90;;;;;;4994513;28;20042;-71
2022/11/27 00:23:36;;;;;;;9.88;3.30;;;6.80;99.90;;;;;;5002261;28;20291;-70
2022/11/27 00:26:03;;;;;;;10.05;4.20;;;6.80;99.90;;;;;;5001868;28;20034;-74
2022/11/27 00:28:30;;;;;;;9.23;2.72;;;6.80;99.90;;;;;;4996332;28;20097;-71
2022/11/27 00:31:04;;;;;;;14.48;3.58;;;6.70;99.90;;;;;;4998181;28;20038;-70
2022/11/27 00:33:29;;;;;;;7.95;3.30;;;6.80;99.90;;;;;;5001215;28;20096;-71
2022/11/27 00:35:55;;;;;;;13.60;3.00;;;6.80;99.90;;;;;;5005068;28;20046;-71
2022/11/27 00:38:21;;;;;;;12.60;3.13;;;6.80;99.90;;;;;;5001447;28;20058;-71
2022/11/27 00:40:47;;;;;;;10.65;3.70;;;6.80;99.90;;;;;;5001757;28;20841;-71
2022/11/27 00:43:12;;;;;;;12.87;3.23;;;6.80;99.90;;;;;;5003798;28;20118;-71
2022/11/27 00:45:38;;;;;;;6.90;3.60;;;6.80;99.90;;;;;;5004430;28;20457;-71
2022/11/27 00:48:04;;;;;;;9.67;3.47;;;6.70;99.90;;;;;;5005661;28;20080;-71
2022/11/27 00:50:31;;;;;;;7.50;2.67;;;6.80;99.90;;;;;;4999225;28;20045;-71
2022/11/27 00:52:59;;;;;;;10.32;3.10;;;6.70;99.90;;;;;;5005422;28;20052;-71
2022/11/27 00:55:25;;;;;;;8.85;3.00;;;6.70;99.90;;;;;;4999034;28;20090;-71
2022/11/27 00:57:51;;;;;;;12.30;3.45;;;6.60;99.90;;;;;;5004810;28;20479;-71
2022/11/27 01:00:17;;;;;;;8.90;2.70;;;6.70;99.90;;;;;;4998978;28;20136;-71
2022/11/27 01:02:43;;;;;;;7.72;2.75;;;6.70;99.90;;;;;;5003785;28;20266;-72
2022/11/27 01:05:09;;;;;;;13.43;2.87;;;6.60;99.90;;;;;;5005391;28;20312;-70
2022/11/27 01:07:34;;;;;;;8.30;3.50;;;6.60;99.90;;;;;;5003344;28;20041;-70
2022/11/27 01:10:00;;;;;;;13.00;3.67;;;6.60;99.90;;;;;;4999641;28;20057;-71
2022/11/27 01:12:26;;;;;;;8.80;3.20;;;6.60;99.90;;;;;;5005864;28;20045;-71
2022/11/27 01:14:51;;;;;;;11.70;3.70;;;6.60;99.90;;;;;;5004132;28;20165;-70
2022/11/27 01:17:17;;;;;;;11.40;3.63;;;6.60;99.90;;;;;;4998881;28;20096;-71
2022/11/27 01:19:42;;;;;;;8.30;3.30;;;6.60;99.90;;;;;;5005630;28;20133;-71
2022/11/27 01:22:08;;;;;;;8.33;3.10;;;6.50;99.90;;;;;;5003705;28;20045;-71
2022/11/27 01:24:34;;;;;;;18.50;3.30;;;6.50;99.90;;;;;;4997830;28;20120;-71
2022/11/27 01:26:59;;;;;;;10.30;3.33;;;6.50;99.90;;;;;;5012649;28;20046;-72
2022/11/27 01:29:25;;;;;;;7.57;2.87;;;6.50;99.90;;;;;;4996832;28;20052;-71
2022/11/27 01:31:50;;;;;;;13.27;3.17;;;6.50;99.90;;;;;;5001380;28;20034;-71
2022/11/27 01:34:17;;;;;;;8.57;2.73;;;6.50;99.90;;;;;;4999304;28;20432;-71
2022/11/27 01:36:43;;;;;;;7.18;3.10;;;6.50;99.90;;;;;;5004076;28;20107;-71
2022/11/27 01:39:15;;;;;;;14.00;2.75;;;6.50;99.90;;;;;;4997308;28;20049;-71
2022/11/27 01:41:41;;;;;;;6.90;2.60;;;6.50;99.90;;;;;;5001344;28;20390;-71
2022/11/27 01:44:24;;;;;;;9.27;2.87;;;6.50;99.90;;;;;;5003288;28;20068;-71
2022/11/27 01:46:54;;;;;;;8.82;2.90;;;6.50;99.90;;;;;;4997521;28;20419;-71
2022/11/27 01:49:32;;;;;;;10.48;2.65;;;6.50;99.90;;;;;;4986108;28;20045;-71
2022/11/27 01:52:02;;;;;;;6.88;2.65;;;6.50;99.90;;;;;;4995209;28;20045;-72
2022/11/27 01:54:49;;;;;;;17.70;3.08;;;6.50;99.90;;;;;;5003367;28;20041;-71
2022/11/27 01:57:19;;;;;;;6.78;3.20;;;6.50;99.90;;;;;;5000962;28;20084;-71
2022/11/27 01:59:47;;;;;;;9.55;3.00;;;6.60;99.90;;;;;;5001680;28;20038;-71
2022/11/27 02:02:13;;;;;;;11.35;3.45;;;6.50;99.90;;;;;;5003899;28;20052;-71
2022/11/27 02:04:39;;;;;;;7.85;3.13;;;6.50;99.90;;;;;;5002140;28;20462;-71
2022/11/27 02:07:04;;;;;;;6.90;3.10;;;6.50;99.90;;;;;;4996871;28;20518;-71
2022/11/27 02:09:30;;;;;;;10.57;3.07;;;6.50;99.90;;;;;;4985846;28;20069;-71
2022/11/27 02:12:09;;;;;;;13.95;3.33;;;6.50;99.90;;;;;;4997974;28;20518;-72
2022/11/27 02:14:52;;;;;;;10.30;2.78;;;6.60;99.90;;;;;;5002459;28;20385;-71
2022/11/27 02:17:33;;;;;;;9.93;3.15;;;6.50;99.90;;;;;;4996471;28;20074;-71
2022/11/27 02:20:14;;;;;;;11.13;3.65;;;6.50;99.90;;;;;;4996393;28;20042;-71
2022/11/27 02:23:02;;;;;;;11.93;3.35;;;6.60;99.90;;;;;;4985762;28;20048;-71
2022/11/27 02:25:50;;;;;;;8.90;3.28;;;6.50;99.90;;;;;;5001849;28;20037;-70
2022/11/27 02:28:42;;;;;;;8.48;2.80;;;6.50;99.90;;;;;;4986056;28;20500;-72
2022/11/27 02:31:20;;;;;;;8.05;2.55;;;6.60;99.90;;;;;;4998478;28;20103;-72
2022/11/27 02:33:51;;;;;;;6.63;2.60;;;6.50;99.90;;;;;;5004756;28;20081;-72
2022/11/27 02:36:29;;;;;;;7.88;3.03;;;6.50;99.90;;;;;;4997954;28;20113;-72
2022/11/27 02:39:13;;;;;;;10.75;3.15;;;6.50;99.90;;;;;;4997628;28;20049;-72
2022/11/27 02:41:46;;;;;;;10.45;3.03;;;6.50;99.90;;;;;;4999131;28;20110;-72
2022/11/27 02:44:12;;;;;;;12.98;3.20;;;6.50;99.90;;;;;;5003880;28;20044;-72
2022/11/27 02:46:40;;;;;;;11.40;3.33;;;6.50;99.90;;;;;;5005627;28;20050;-72
2022/11/27 02:49:13;;;;;;;10.98;3.35;;;6.50;99.90;;;;;;5005664;28;20061;-72
2022/11/27 02:51:44;;;;;;;14.77;3.53;;;6.50;99.90;;;;;;5003639;28;20459;-72
2022/11/27 02:54:17;;;;;;;9.90;3.30;;;6.50;99.90;;;;;;5007461;28;20139;-72
2022/11/27 02:56:43;;;;;;;9.45;3.35;;;6.50;99.90;;;;;;4998218;28;20042;-72
2022/11/27 02:59:12;;;;;;;11.45;3.60;;;6.50;99.90;;;;;;5006505;28;20038;-72
2022/11/27 03:01:42;;;;;;;11.23;3.60;;;6.50;99.90;;;;;;5000599;28;20065;-72
2022/11/27 03:04:14;;;;;;;10.90;3.85;;;6.50;99.90;;;;;;5002857;28;20044;-72
2022/11/27 03:06:46;;;;;;;9.05;3.30;;;6.40;99.90;;;;;;5006637;28;20475;-72
2022/11/27 03:09:21;;;;;;;9.88;3.83;;;6.50;99.90;;;;;;5006115;28;20058;-73
2022/11/27 03:11:48;;;;;;;7.57;3.33;;;6.50;99.90;;;;;;5003339;28;20570;-72
2022/11/27 03:14:14;;;;;;;14.00;3.55;;;6.50;99.90;;;;;;5003225;28;20095;-72
2022/11/27 03:17:20;;;;;;;7.10;3.58;;;6.40;99.90;;;;;;5006124;28;20141;-72
2022/11/27 03:20:02;;;;;;;8.32;3.53;;;6.40;99.90;;;;;;4991333;28;20585;-71
2022/11/27 03:22:28;;;;;;;8.68;3.17;;;6.40;99.90;;;;;;5004790;28;20038;-72
2022/11/27 03:24:54;;;;;;;9.30;3.83;;;6.40;99.90;;;;;;5006988;28;20191;-72
2022/11/27 03:27:29;;;;;;;7.90;3.45;;;6.40;99.90;;;;;;5002317;28;20400;-72
2022/11/27 03:30:00;;;;;;;13.85;3.35;;;6.40;99.90;;;;;;5002102;28;20068;-72
2022/11/27 03:32:27;;;;;;;7.35;3.40;;;6.40;99.90;;;;;;5005465;28;20068;-72
2022/11/27 03:34:54;;;;;;;15.52;3.33;;;6.40;99.90;;;;;;5007756;28;20037;-71
2022/11/27 03:37:20;;;;;;;16.25;3.80;;;6.40;99.90;;;;;;5002304;28;20061;-72
2022/11/27 03:39:46;;;;;;;;;;;6.40;99.90;;;;;;5005021;28;20072;-72
2022/11/27 03:42:25;;;;;;;15.48;4.07;;;6.40;99.90;;;;;;5004007;28;19921;-72
2022/11/27 03:44:56;;;;;;;10.18;3.13;;;6.40;99.90;;;;;;5001965;28;20045;-72
2022/11/27 03:47:43;;;;;;;9.98;3.75;;;6.40;99.90;;;;;;5005251;28;20045;-72
2022/11/27 03:50:21;;;;;;;12.27;3.97;;;6.40;99.90;;;;;;5005002;28;20033;-72
2022/11/27 03:52:52;;;;;;;9.27;3.72;;;6.40;99.90;;;;;;4991049;28;20526;-72
2022/11/27 03:55:41;;;;;;;7.20;3.15;;;6.40;99.90;;;;;;4983319;28;20042;-73
2022/11/27 03:58:35;;;;;;;8.48;3.50;;;6.40;99.90;;;;;;5005916;28;20546;-72
2022/11/27 04:01:04;;;;;;;13.93;3.50;;;6.40;99.90;;;;;;5001088;28;20038;-72
2022/11/27 04:03:30;;;;;;;9.65;3.45;;;6.40;99.90;;;;;;5003037;28;20391;-72
2022/11/27 04:05:56;;;;;;;10.30;3.93;;;6.50;99.90;;;;;;4989114;28;20054;-72
2022/11/27 04:08:22;;;;;;;8.98;3.33;;;6.50;99.90;;;;;;4985601;28;20515;-72
2022/11/27 04:10:48;;;;;;;13.48;3.35;;;6.50;99.90;;;;;;5020819;28;21029;-72
2022/11/27 04:13:14;;;;;;;7.90;3.97;;;6.50;99.90;;;;;;5004426;28;20085;-72
2022/11/27 04:15:40;;;;;;;14.02;3.67;;;6.50;99.90;;;;;;5006094;28;20042;-72
2022/11/27 04:18:06;;;;;;;9.23;3.37;;;6.50;99.90;;;;;;5005173;28;20389;-72
2022/11/27 04:20:31;;;;;;;8.50;3.40;;;6.50;99.90;;;;;;5001610;28;20054;-71
2022/11/27 04:22:57;;;;;;;9.43;3.77;;;6.50;99.90;;;;;;5003691;28;20515;-72
2022/11/27 04:25:23;;;;;;;6.70;3.37;;;6.40;99.90;;;;;;4989605;28;20045;-71
2022/11/27 04:27:49;;;;;;;13.68;3.75;;;6.50;99.90;;;;;;5004227;28;20472;-72
2022/11/27 04:30:16;;;;;;;13.07;3.22;;;6.50;99.90;;;;;;5004204;28;20049;-71
2022/11/27 04:32:41;;;;;;;7.72;3.47;;;6.50;99.90;;;;;;4999685;28;20034;-72
2022/11/27 04:35:07;;;;;;;8.63;3.13;;;6.50;99.90;;;;;;5052804;23;20113;-69
2022/11/27 04:37:33;;;;;;;7.72;3.05;;;6.40;99.90;;;;;;4985910;28;20078;-68
2022/11/27 04:39:59;;;;;;;10.50;3.30;;;6.40;99.90;;;;;;4991366;28;20092;-68
2022/11/27 04:42:24;;;;;;;8.53;3.20;;;6.40;99.90;;;;;;4995379;28;20267;-68
2022/11/27 04:44:50;;;;;;;7.57;2.70;;;6.40;99.90;;;;;;4992187;28;20046;-67
2022/11/27 04:47:16;;;;;;;8.60;3.03;;;6.40;99.90;;;;;;4992760;28;20759;-68
2022/11/27 04:49:41;;;;;;;11.37;3.50;;;6.40;99.90;;;;;;4988877;28;20039;-67
2022/11/27 04:52:09;;;;;;;11.73;3.20;;;6.40;99.90;;;;;;4988375;28;20038;-69
2022/11/27 04:54:35;;;;;;;8.23;2.75;;;6.50;99.90;;;;;;4988035;28;20050;-68
2022/11/27 04:57:01;;;;;;;7.20;2.50;;;6.50;99.90;;;;;;4984341;28;20411;-68
2022/11/27 04:59:27;;;;;;;7.18;2.80;;;6.50;99.90;;;;;;4989635;28;20050;-68
2022/11/27 05:01:53;;;;;;;8.27;3.67;;;6.50;99.90;;;;;;4989032;28;20615;-70
2022/11/27 05:04:19;;;;;;;7.93;2.93;;;6.50;99.90;;;;;;4971885;28;20303;-69
2022/11/27 05:06:45;;;;;;;;;;;6.50;99.90;;;;;;4989186;28;20121;-69
2022/11/27 05:09:10;;;;;;;8.10;2.70;;;6.50;99.90;;;;;;4975704;28;20001;-70
2022/11/27 05:11:36;;;;;;;7.90;2.83;;;6.50;99.90;;;;;;4990418;28;20042;-67
2022/11/27 05:14:14;;;;;;;7.87;2.77;;;6.50;99.90;;;;;;4987254;28;20118;-70
2022/11/27 05:16:51;;;;;;;7.32;2.85;;;6.50;99.90;;;;;;4996172;28;20137;-69
2022/11/27 05:19:19;;;;;;;7.53;3.05;;;6.50;99.90;;;;;;4990093;28;20048;-68
2022/11/27 05:21:46;;;;;;;7.80;2.92;;;6.50;99.90;;;;;;4972039;28;20050;-69
2022/11/27 05:24:11;;;;;;;;;;;6.50;99.90;;;;;;4991099;28;20125;-69
2022/11/27 05:26:38;;;;;;;8.25;2.55;;;6.50;99.90;;;;;;4995880;28;20502;-69
2022/11/27 05:29:05;;;;;;;6.97;2.33;;;6.50;99.90;;;;;;4989038;28;20045;-68
2022/11/27 05:31:30;;;;;;;7.10;2.83;;;6.50;99.90;;;;;;4984316;28;20122;-69
2022/11/27 05:33:56;;;;;;;11.63;3.20;;;6.50;99.90;;;;;;4986373;28;20062;-69
2022/11/27 05:36:22;;;;;;;7.10;2.13;;;6.50;99.90;;;;;;4989050;28;20076;-69
2022/11/27 05:38:48;;;;;;;7.25;2.65;;;6.60;99.90;;;;;;4988187;28;20918;-68
2022/11/27 05:41:13;;;;;;;10.30;2.67;;;6.60;99.90;;;;;;4985273;28;20038;-68
2022/11/27 05:43:40;;;;;;;5.57;3.00;;;6.50;99.90;;;;;;4990799;28;20467;-68
2022/11/27 05:46:07;;;;;;;6.53;1.95;;;6.60;99.90;;;;;;4991778;28;20396;-68
2022/11/27 05:48:34;;;;;;;9.23;2.30;;;6.60;99.90;;;;;;4991706;28;20068;-68
2022/11/27 05:51:01;;;;;;;6.72;2.28;;;6.60;99.90;;;;;;4996498;28;20076;-68
2022/11/27 05:53:26;;;;;;;7.10;2.03;;;6.60;99.90;;;;;;4989380;28;20109;-68
2022/11/27 05:55:52;;;;;;;10.67;2.20;;;6.60;99.90;;;;;;4998184;28;20042;-68
2022/11/27 05:58:18;;;;;;;10.27;2.20;;;6.60;99.90;;;;;;4988223;28;20050;-68
2022/11/27 06:00:44;;;;;;;9.90;2.63;;;6.60;99.90;;;;;;4981864;28;20060;-69
2022/11/27 06:03:09;;;;;;;7.70;2.20;;;6.60;99.90;;;;;;4986919;28;20054;-68
2022/11/27 06:05:39;;;;;;;7.27;2.37;;;6.60;99.90;;;;;;4989628;28;20061;-68
2022/11/27 06:08:04;;;;;;;4.82;2.20;;;6.60;99.90;;;;;;4987186;28;20515;-70
2022/11/27 06:10:30;;;;;;;6.77;2.43;;;6.60;99.90;;;;;;4987462;28;20038;-69
2022/11/27 06:12:56;;;;;;;6.70;2.80;;;6.60;99.90;;;;;;4975577;28;20104;-69
2022/11/27 06:15:21;;;;;;;7.57;2.87;;;6.60;99.90;;;;;;4992243;28;20037;-68
2022/11/27 06:17:50;;;;;;;7.00;2.13;;;6.60;99.90;;;;;;4987958;28;20047;-69
2022/11/27 06:20:19;;;;;;;6.57;2.10;;;6.70;99.90;;;;;;4986681;28;20054;-69
2022/11/27 06:22:44;;;;;;;7.20;2.85;;;6.70;99.90;;;;;;4985200;28;20113;-68
2022/11/27 06:25:10;;;;;;;7.63;2.47;;;6.70;99.90;;;;;;4973675;28;20129;-67
2022/11/27 06:27:36;;;;;;;7.40;2.27;;;6.60;99.90;;;;;;4986944;28;20046;-68
2022/11/27 06:30:03;;;;;;;8.45;1.90;;;6.60;99.90;;;;;;4985919;28;20034;-69
2022/11/27 06:32:29;;;;;;;9.35;2.58;;;6.70;99.90;;;;;;4987234;28;20491;-68
2022/11/27 06:34:54;;;;;;;7.63;2.53;;;6.70;99.90;;;;;;4986115;28;20130;-68
2022/11/27 06:37:20;;;;;;;7.50;2.53;;;6.70;99.90;;;;;;4987233;28;20567;-68
2022/11/27 06:39:48;;;;;;;7.50;2.10;;;6.70;99.90;;;;;;4986186;28;20046;-69
2022/11/27 06:42:13;;;;;;;6.68;2.17;;;6.70;99.90;;;;;;4984165;28;20277;-69
2022/11/27 06:44:39;;;;;;;4.47;1.92;;;6.60;99.90;;;;;;4985777;28;20108;-69
2022/11/27 06:47:05;;;;;;;8.35;2.20;;;6.70;99.90;;;;;;4986001;28;20113;-69
2022/11/27 06:49:30;;;;;;;6.20;2.43;;;6.70;99.90;;;;;;4984255;28;20041;-69
2022/11/27 06:51:56;;;;;;;10.37;2.30;;;6.70;99.90;;;;;;4976243;28;20046;-69
2022/11/27 06:54:22;;;;;;;5.23;2.30;;;6.70;99.90;;;;;;4987201;28;20045;-69
2022/11/27 06:56:51;;;;;;;5.63;1.87;;;6.70;99.90;;;;;;4984619;28;20038;-68
2022/11/27 06:59:17;;;;;;;4.50;2.30;;;6.70;99.90;;;;;;4984787;28;20294;-69
2022/11/27 07:01:43;;;;;;;6.03;2.42;;;6.70;99.90;;;;;;4981473;28;20527;-69
2022/11/27 07:04:11;;;;;;;7.23;3.37;;;6.70;99.90;;;;;;4987113;28;20042;-69
2022/11/27 07:06:37;;;;;;;3.67;1.75;;;6.70;99.90;;;;;;4987320;28;20289;-69
2022/11/27 07:09:04;;;;;;;7.72;3.13;;;6.70;99.90;;;;;;4988677;28;20550;-69
2022/11/27 07:11:30;;;;;;;5.55;1.92;;;6.70;99.90;;;;;;4984260;28;20077;-69
2022/11/27 07:13:57;;;;;;;;;;;6.70;99.90;;;;;;4983713;28;20438;-69
2022/11/27 07:16:23;;;;;;;4.32;1.58;;;6.60;99.90;;;;;;4986629;28;20395;-70
2022/11/27 07:18:54;;;;;;;5.32;2.08;;;6.70;99.90;;;;;;4986938;28;20046;-69
2022/11/27 07:21:20;;;;;;;8.07;2.33;;;6.70;99.90;;;;;;4987178;28;20193;-69
2022/11/27 07:23:46;;;;;;;6.55;1.98;;;6.70;99.90;;;;;;4984943;28;20046;-69
2022/11/27 07:26:18;;;;;;;5.40;2.40;;;6.70;99.90;;;;;;4984074;28;20611;-69
2022/11/27 07:28:44;;;;;;;5.68;2.42;;;6.70;99.90;;;;;;4986756;28;20494;-70
2022/11/27 07:31:16;;;;;;;8.38;1.90;;;6.70;99.90;;;;;;4988897;28;20468;-69
2022/11/27 07:33:42;;;;;;;3.55;1.92;;;6.60;99.90;;;;;;4988712;28;20369;-69
2022/11/27 07:36:13;;;;;;;6.20;2.20;;;6.70;99.90;;;;;;4992968;28;20696;-70
2022/11/27 07:38:39;;;;;;;6.05;1.70;;;6.70;99.90;;;;;;4988064;28;20098;-69
2022/11/27 07:41:05;;;;;;;7.20;2.47;;;6.70;99.90;;;;;;4989619;28;20411;-70
2022/11/27 07:43:33;;;;;;;5.22;1.73;;;6.60;99.90;;;;;;4991246;28;20042;-70
2022/11/27 07:46:03;;;;;;;4.50;2.45;;;6.60;99.90;;;;;;4982003;28;20381;-69
2022/11/27 07:48:28;;;;;;;6.32;2.00;;;6.70;99.90;;;;;;4988159;28;20042;-69
2022/11/27 07:50:54;;;;;;;10.27;2.20;;;6.70;99.90;;;;;;4993012;28;20045;-68
2022/11/27 07:53:19;;;;;;;6.30;2.20;;;6.70;99.90;;;;;;4986144;28;20053;-69
2022/11/27 07:55:45;;;;;;;5.40;1.87;;;6.70;99.90;;;;;;4991872;28;20492;-69
2022/11/27 07:58:11;;;;;;;5.80;2.07;;;6.60;99.90;;;;;;4994269;28;20133;-68
2022/11/27 08:00:37;;;;;;;4.90;2.20;;;6.70;99.90;;;;;;4984322;28;20092;-69
2022/11/27 08:03:03;;;;;;;8.02;2.22;;;6.70;99.90;;;;;;4989766;28;20511;-69
2022/11/27 08:05:32;;;;;;;3.70;1.80;;;6.70;99.90;;;;;;4990365;28;20038;-69
2022/11/27 08:07:59;;;;;;;6.63;2.30;;;6.70;99.90;;;;;;4997611;28;20034;-69
2022/11/27 08:10:25;;;;;;;5.70;2.00;;;6.70;99.90;;;;;;4995212;28;20061;-69
2022/11/27 08:12:51;;;;;;;6.37;2.27;;;6.70;99.90;;;;;;4988454;28;20042;-68
2022/11/27 08:15:16;;;;;;;4.17;1.93;;;6.70;99.90;;;;;;4988113;28;20452;-69
2022/11/27 08:17:42;;;;;;;8.03;2.67;;;6.70;99.90;;;;;;4968712;28;20053;-69
2022/11/27 08:20:08;;;;;;;4.03;1.97;;;6.70;99.90;;;;;;4986457;28;20077;-70
2022/11/27 08:22:34;;;;;;;5.90;2.05;;;6.70;99.90;;;;;;4985693;28;20449;-69
2022/11/27 08:25:00;;;;;;;5.30;2.15;;;6.70;99.90;;;;;;4991806;28;20113;-69
2022/11/27 08:27:25;;;;;;;6.50;2.23;;;6.80;99.90;;;;;;4987308;28;20117;-69
2022/11/27 08:29:51;;;;;;;5.70;1.87;;;6.80;99.90;;;;;;4993179;28;20080;-69
2022/11/27 08:32:16;;;;;;;6.37;2.43;;;6.70;99.90;;;;;;4985816;28;20054;-70
2022/11/27 08:34:42;;;;;;;7.40;2.00;;;6.80;99.90;;;;;;4979261;28;20118;-69
2022/11/27 08:37:08;;;;;;;7.07;2.43;;;6.80;99.90;;;;;;4998834;28;20044;-69
2022/11/27 08:39:34;;;;;;;4.07;2.43;;;6.80;99.90;;;;;;4993227;28;20058;-69
2022/11/27 08:42:00;;;;;;;5.20;2.22;;;6.80;99.90;;;;;;4985146;28;20568;-68
2022/11/27 08:44:26;;;;;;;5.33;2.50;;;6.80;99.90;;;;;;4972436;28;20125;-68
2022/11/27 08:46:51;;;;;;;5.30;2.23;;;6.80;99.90;;;;;;4987615;28;20273;-69
2022/11/27 08:49:17;;;;;;;6.10;2.50;;;6.80;99.90;;;;;;4992588;28;20148;-69
2022/11/27 08:51:43;;;;;;;8.70;2.37;;;6.80;99.90;;;;;;4980577;28;20053;-69
2022/11/27 08:54:08;;;;;;;9.10;2.27;;;6.80;99.90;;;;;;4988828;28;20034;-67
2022/11/27 08:56:35;;;;;;;7.67;2.40;;;6.80;99.90;;;;;;4989180;28;20045;-68
2022/11/27 08:59:01;;;;;;;6.50;2.25;;;6.80;99.90;;;;;;4994849;28;20038;-69
2022/11/27 09:01:29;;;;;;;9.88;2.40;;;6.80;99.90;;;;;;4991101;28;20580;-69
2022/11/27 09:03:55;;;;;;;3.83;1.67;;;6.80;99.90;;;;;;4987943;28;20556;-69
2022/11/27 09:06:24;;;;;;;7.88;2.55;;;6.80;99.90;;;;;;4989118;28;20532;-70
2022/11/27 09:08:58;;;;;;;9.35;2.17;;;6.80;99.90;;;;;;4984838;28;20061;-70
2022/11/27 09:11:25;;;;;;;6.82;3.03;;;6.80;99.90;;;;;;4988113;28;20374;-69
2022/11/27 09:13:50;;;;;;;;;;;6.80;99.90;;;;;;4991721;28;20046;-69
2022/11/27 09:16:21;;;;;;;6.07;2.17;;;6.80;99.90;;;;;;4989304;28;19921;-70
2022/11/27 09:18:50;;;;;;;4.13;2.08;;;6.80;99.90;;;;;;4981602;28;20185;-69
2022/11/27 09:21:18;;;;;;;9.60;2.55;;;6.70;99.90;;;;;;4986882;28;20038;-70
2022/11/27 09:23:44;;;;;;;8.93;3.30;;;6.70;99.90;;;;;;4971579;28;20054;-70
2022/11/27 09:26:15;;;;;;;7.60;2.90;;;6.70;99.90;;;;;;4981091;28;20053;-70
2022/11/27 09:28:42;;;;;;;8.82;3.22;;;6.70;99.90;;;;;;4989182;28;20260;-69
2022/11/27 09:31:11;;;;;;;8.30;2.88;;;6.70;99.90;;;;;;4992266;28;20484;-70
2022/11/27 09:33:38;;;;;;;5.57;2.28;;;6.70;99.90;;;;;;4987100;28;20301;-69
2022/11/27 09:36:13;;;;;;;5.45;2.42;;;6.60;99.90;;;;;;4992464;28;20519;-69
2022/11/27 09:38:39;;;;;;;13.10;2.97;;;6.70;99.90;;;;;;4991564;28;20042;-68
2022/11/27 09:41:32;;;;;;;11.32;2.67;;;6.60;99.90;;;;;;4991507;28;20112;-69
2022/11/27 09:44:17;;;;;;;8.98;2.85;;;6.60;99.90;;;;;;4987448;28;20042;-69
2022/11/27 09:46:44;;;;;;;5.35;2.47;;;6.60;99.90;;;;;;4988213;28;20413;-70
2022/11/27 09:49:36;;;;;;;6.13;2.50;;;6.60;99.90;;;;;;4974451;28;20099;-69
2022/11/27 09:52:19;;;;;;;6.07;2.60;;;6.60;99.90;;;;;;4980723;28;20043;-69
2022/11/27 09:55:01;;;;;;;9.43;2.72;;;6.60;99.90;;;;;;4991668;28;20205;-70
2022/11/27 09:57:32;;;;;;;7.43;2.55;;;6.60;99.90;;;;;;4988433;28;20215;-69
2022/11/27 10:00:02;;;;;;;6.82;2.88;;;6.60;99.90;;;;;;4979549;28;20042;-68
2022/11/27 10:02:30;;;;;;;14.13;3.17;;;6.60;99.90;;;;;;4986036;28;20046;-69
2022/11/27 10:04:58;;;;;;;5.72;3.15;;;6.60;99.90;;;;;;4987227;28;20449;-68
2022/11/27 10:07:47;;;;;;;12.73;3.28;;;6.60;99.90;;;;;;4990899;28;20389;-69
2022/11/27 10:10:40;;;;;;;7.00;3.60;;;6.60;99.90;;;;;;4978610;28;20053;-68
2022/11/27 10:13:15;;;;;;;8.00;3.28;;;6.60;99.90;;;;;;4981053;28;20730;-69
2022/11/27 10:16:00;;;;;;;8.02;3.13;;;6.60;99.90;;;;;;4993138;28;20100;-68
2022/11/27 10:18:51;;;;;;;7.35;3.33;;;6.60;99.90;;;;;;4987227;28;20072;-67
2022/11/27 10:21:43;;;;;;;8.82;3.28;;;6.60;99.90;;;;;;4978160;28;20356;-68
2022/11/27 10:24:15;;;;;;;6.18;2.47;;;6.60;99.90;;;;;;4981507;28;20381;-68
2022/11/27 10:26:49;;;;;;;11.45;3.92;;;6.60;99.90;;;;;;4983610;28;20094;-68
2022/11/27 10:29:26;;;;;;;7.63;3.33;;;6.70;99.90;;;;;;4978369;28;20038;-69
2022/11/27 10:31:56;;;;;;;8.85;3.33;;;6.60;99.90;;;;;;4965741;28;20125;-68
2022/11/27 10:34:33;;;;;;;7.90;3.33;;;6.70;99.90;;;;;;4997732;23;20034;-72
2022/11/27 10:37:01;;;;;;;8.73;3.25;;;6.70;99.90;;;;;;4998679;28;20395;-72
2022/11/27 10:39:41;;;;;;;10.35;3.20;;;6.70;99.90;;;;;;4979315;28;20046;-72
2022/11/27 10:42:17;;;;;;;9.52;3.28;;;6.70;99.90;;;;;;5000577;28;20450;-73
2022/11/27 10:45:18;;;;;;;4.85;2.50;;;6.70;99.90;;;;;;4990395;28;20205;-72
2022/11/27 10:47:45;;;;;;;10.98;3.72;;;6.70;99.90;;;;;;4970106;28;20066;-72
2022/11/27 10:50:18;;;;;;;10.65;3.60;;;6.80;99.90;;;;;;4982330;28;20054;-72
2022/11/27 10:52:59;;;;;;;5.78;2.90;;;6.80;99.90;;;;;;4995844;28;20038;-72
2022/11/27 10:55:37;;;;;;;11.32;3.20;;;6.70;99.90;;;;;;5011391;28;20510;-73
2022/11/27 10:58:03;;;;;;;7.72;3.22;;;6.80;99.90;;;;;;5003673;28;20129;-72
2022/11/27 11:00:28;;;;;;;7.73;3.33;;;6.80;99.90;;;;;;4982116;28;20489;-73
2022/11/27 11:03:06;;;;;;;7.37;3.70;;;6.80;99.90;;;;;;4987715;28;20041;-72
2022/11/27 11:05:32;;;;;;;10.43;4.30;;;6.80;99.90;;;;;;4988592;28;20136;-72
2022/11/27 11:08:15;;;;;;;7.75;3.53;;;6.80;99.90;;;;;;4988763;28;20046;-72
2022/11/27 11:10:49;;;;;;;14.00;3.28;;;6.80;99.90;;;;;;5010290;28;20390;-72
2022/11/27 11:13:27;;;;;;;9.07;3.38;;;6.80;99.90;;;;;;5009444;28;20052;-72
2022/11/27 11:16:11;;;;;;;6.45;2.90;;;6.80;99.90;;;;;;4994318;28;20495;-72
2022/11/27 11:18:48;;;;;;;9.25;3.35;;;6.90;99.90;;;;;;5008221;28;20046;-72
2022/11/27 11:21:41;;;;;;;9.25;3.20;;;6.90;99.90;;;;;;4985607;28;20038;-72
2022/11/27 11:24:25;;;;;;;11.40;3.45;;;6.90;99.90;;;;;;5001762;28;20037;-72
2022/11/27 11:26:58;;;;;;;13.60;4.18;;;6.90;99.90;;;;;;4986121;28;20562;-72
2022/11/27 11:29:26;;;;;;;8.18;3.53;;;6.90;99.90;;;;;;5003993;28;20041;-72
2022/11/27 11:31:54;;;;;;;7.68;3.58;;;6.90;99.90;;;;;;5006126;28;20091;-72
2022/11/27 11:34:29;;;;;;;7.53;3.33;;;6.90;99.90;;;;;;5001095;28;20044;-73
2022/11/27 11:36:55;;;;;;;8.10;3.80;;;6.90;99.90;;;;;;4983740;28;20467;-72
2022/11/27 11:39:30;;;;;;;12.68;4.72;;;6.90;99.90;;;;;;4999382;28;20030;-72
2022/11/27 11:41:56;;;;;;;11.85;4.00;;;6.90;99.90;;;;;;4986658;28;20059;-72
2022/11/27 11:44:30;;;;;;;12.03;3.90;;;6.90;99.90;;;;;;5001430;28;20117;-72
2022/11/27 11:46:55;;;;;;;9.73;3.65;;;6.90;99.90;;;;;;4964307;28;20050;-72
2022/11/27 11:49:27;;;;;;;8.33;3.57;;;6.90;99.90;;;;;;4988846;28;20037;-72
2022/11/27 11:52:22;;;;;;;11.93;4.68;;;6.90;99.90;;;;;;5010083;28;20376;-72
2022/11/27 11:55:33;;;;;;;9.32;4.18;;;6.90;99.90;;;;;;4972763;28;20453;-72
2022/11/27 11:58:09;;;;;;;11.50;4.05;;;7.00;99.90;;;;;;4918761;29;20374;-72
2022/11/27 12:00:49;;;;;;;11.60;4.03;;;6.90;99.90;;;;;;4926098;29;20546;-72
2022/11/27 12:03:32;;;;;;;10.68;4.00;;;7.00;99.90;;;;;;4973181;28;20576;-72
2022/11/27 12:06:24;;;;;;;8.77;4.35;;;7.00;99.90;;;;;;4983800;28;20138;-72
2022/11/27 12:09:14;;;;;;;10.82;4.47;;;7.00;99.90;;;;;;4983690;28;20542;-72
2022/11/27 12:12:01;;;;;;;9.07;3.88;;;7.00;99.90;;;;;;4970754;28;20045;-72
2022/11/27 12:14:26;;;;;;;8.25;3.67;;;7.00;99.90;;;;;;4988180;28;20038;-72
2022/11/27 12:17:30;;;;;;;9.97;3.93;;;7.00;99.90;;;;;;4988174;28;20408;-72
2022/11/27 12:20:21;;;;;;;9.63;3.70;;;7.10;99.90;;;;;;4976832;28;20077;-72
2022/11/27 12:22:59;;;;;;;8.77;3.75;;;7.10;99.90;;;;;;5005416;28;20303;-71
2022/11/27 12:25:25;;;;;;;9.57;3.30;;;7.10;99.90;;;;;;4993652;28;20456;-72
2022/11/27 12:28:02;;;;;;;10.23;4.37;;;7.00;99.90;;;;;;5004965;28;20045;-72
2022/11/27 12:30:49;;;;;;;11.05;3.20;;;7.00;99.90;;;;;;5005374;28;20038;-72
2022/11/27 12:33:34;;;;;;;7.93;2.95;;;7.00;99.90;;;;;;5004373;28;20387;-72
2022/11/27 12:36:06;;;;;;;9.93;3.33;;;7.10;99.90;;;;;;4988729;28;20046;-73
2022/11/27 12:38:39;;;;;;;8.00;3.63;;;7.10;99.90;;;;;;4986118;28;20148;-72
2022/11/27 12:41:24;;;;;;;8.25;3.97;;;7.10;99.90;;;;;;4989505;28;20148;-72
2022/11/27 12:43:54;;;;;;;8.68;3.65;;;7.10;99.90;;;;;;5007654;28;20052;-72
2022/11/27 12:46:47;;;;;;;10.82;4.05;;;7.10;99.90;;;;;;4988173;28;20034;-72
2022/11/27 12:49:23;;;;;;;9.25;3.90;;;7.10;99.90;;;;;;4983313;28;20168;-72
2022/11/27 12:52:04;;;;;;;8.35;3.35;;;7.20;99.90;;;;;;5002870;28;20084;-72
2022/11/27 12:54:44;;;;;;;8.73;3.22;;;7.10;99.90;;;;;;5003002;28;20440;-72
2022/11/27 12:57:51;;;;;;;9.20;3.42;;;7.10;99.90;;;;;;5006504;28;20500;-72
2022/11/27 13:00:22;;;;;;;10.85;4.05;;;7.10;99.90;;;;;;4942398;28;20424;-72
2022/11/27 13:03:12;;;;;;;8.18;3.50;;;7.10;99.90;;;;;;4985621;28;20140;-72
2022/11/27 13:05:51;;;;;;;11.25;3.60;;;7.10;99.90;;;;;;5014519;28;20096;-72
2022/11/27 13:08:28;;;;;;;8.30;4.00;;;7.10;99.90;;;;;;5003318;28;20121;-72
2022/11/27 13:11:04;;;;;;;12.35;4.50;;;7.10;99.90;;;;;;4979153;28;20433;-72
2022/11/27 13:13:44;;;;;;;10.03;3.50;;;7.10;99.90;;;;;;5005744;28;20053;-72
2022/11/27 13:16:22;;;;;;;8.98;4.20;;;7.00;99.90;;;;;;5002164;28;21260;-72